Time;durP1;ratioP1;P1;durP2;ratioP2;P2;SDS_P1;SDS_P2;PMS_P1;PMS_P2;Temp;Humidity;BMP_temperature;BMP_pressure;BME280_temperature;BME280_humidity;BME280_pressure;Samples;Min_cycle;Max_cycle;Signal;HPM_P1;HPM_P2
2024/02/11 00:01:39;;;;;;;23.80;14.30;;;;;;;;;;5066497;28;20197;-72
2024/02/11 00:04:04;;;;;;;20.30;13.77;;;;;;;;;;5057082;28;20197;-72
2024/02/11 00:06:29;;;;;;;20.30;13.65;;;;;;;;;;5059419;28;20181;-72
2024/02/11 00:08:55;;;;;;;23.98;14.52;;;;;;;;;;5058194;28;20169;-72
2024/02/11 00:11:21;;;;;;;19.27;13.32;;;;;;;;;;5064314;28;20681;-73
2024/02/11 00:13:46;;;;;;;20.63;14.52;;;;;;;;;;5043608;28;20234;-71
2024/02/11 00:16:13;;;;;;;24.98;15.25;;;;;;;;;;5068376;28;20717;-72
2024/02/11 00:18:38;;;;;;;22.50;14.65;;;;;;;;;;5061953;28;20212;-71
2024/02/11 00:21:04;;;;;;;23.15;15.18;;;;;;;;;;5064946;28;20213;-71
2024/02/11 00:23:29;;;;;;;21.35;14.35;;;;;;;;;;5067160;28;20303;-71
2024/02/11 00:25:54;;;;;;;21.30;14.68;;;;;;;;;;5066891;28;20259;-70
2024/02/11 00:28:23;;;;;;;22.10;14.48;;;;;;;;;;5066900;28;20226;-71
2024/02/11 00:30:48;;;;;;;21.77;15.25;;;;;;;;;;5049777;28;20242;-72
2024/02/11 00:33:14;;;;;;;22.30;15.05;;;;;;;;;;5060209;28;20173;-71
2024/02/11 00:35:40;;;;;;;21.70;15.82;;;;;;;;;;5068318;28;20177;-72
2024/02/11 00:38:06;;;;;;;20.95;14.95;;;;;;;;;;5061659;28;20185;-72
2024/02/11 00:40:31;;;;;;;23.58;16.10;;;;;;;;;;5063923;28;20198;-71
2024/02/11 00:42:56;;;;;;;20.90;14.80;;;;;;;;;;5062552;28;20177;-72
2024/02/11 00:45:21;;;;;;;22.48;14.90;;;;;;;;;;5062187;28;20636;-71
2024/02/11 00:47:47;;;;;;;21.88;14.25;;;;;;;;;;5068197;28;20185;-72
2024/02/11 00:50:13;;;;;;;21.77;14.90;;;;;;;;;;5048074;28;20279;-72
2024/02/11 00:52:41;;;;;;;25.63;15.70;;;;;;;;;;5057093;28;20182;-72
2024/02/11 00:55:11;;;;;;;30.15;16.17;;;;;;;;;;5034166;28;20195;-71
2024/02/11 00:57:36;;;;;;;23.52;14.88;;;;;;;;;;5029039;28;20909;-71
2024/02/11 01:00:09;;;;;;;23.02;15.20;;;;;;;;;;5044417;28;20230;-71
2024/02/11 01:02:35;;;;;;;21.63;14.82;;;;;;;;;;5043452;28;20187;-71
2024/02/11 01:05:00;;;;;;;23.33;15.90;;;;;;;;;;5045467;28;20205;-70
2024/02/11 01:07:26;;;;;;;19.48;14.07;;;;;;;;;;5046188;28;20184;-71
2024/02/11 01:09:51;;;;;;;20.95;14.18;;;;;;;;;;5045954;28;20177;-71
2024/02/11 01:12:17;;;;;;;26.65;15.57;;;;;;;;;;5032452;28;20197;-71
2024/02/11 01:14:42;;;;;;;21.58;15.00;;;;;;;;;;5040023;28;20234;-72
2024/02/11 01:17:07;;;;;;;24.40;15.27;;;;;;;;;;5067611;28;20173;-72
2024/02/11 01:19:33;;;;;;;22.73;15.57;;;;;;;;;;5047536;28;20576;-72
2024/02/11 01:21:58;;;;;;;23.02;14.95;;;;;;;;;;5062118;28;20197;-72
2024/02/11 01:24:23;;;;;;;22.55;15.38;;;;;;;;;;5068009;28;20205;-72
2024/02/11 01:26:48;;;;;;;21.65;15.02;;;;;;;;;;5063527;28;20181;-72
2024/02/11 01:29:14;;;;;;;22.42;15.35;;;;;;;;;;5061932;28;20181;-72
2024/02/11 01:31:39;;;;;;;19.23;14.10;;;;;;;;;;5061912;28;20673;-72
2024/02/11 01:34:05;;;;;;;23.70;15.85;;;;;;;;;;5047948;28;20664;-71
2024/02/11 01:36:30;;;;;;;19.15;14.32;;;;;;;;;;5058476;28;21240;-70
2024/02/11 01:38:55;;;;;;;21.27;14.35;;;;;;;;;;5064765;28;20223;-71
2024/02/11 01:41:21;;;;;;;22.58;14.68;;;;;;;;;;5066302;28;20615;-70
2024/02/11 01:43:46;;;;;;;22.58;14.00;;;;;;;;;;5063023;28;20234;-71
2024/02/11 01:46:11;;;;;;;21.60;15.18;;;;;;;;;;5064697;28;20571;-72
2024/02/11 01:48:38;;;;;;;19.25;13.57;;;;;;;;;;5062003;28;20200;-73
2024/02/11 01:51:04;;;;;;;20.83;15.00;;;;;;;;;;5066715;28;20236;-71
2024/02/11 01:53:29;;;;;;;21.05;14.20;;;;;;;;;;5036683;28;20212;-71
2024/02/11 01:55:55;;;;;;;22.48;14.90;;;;;;;;;;5046114;28;20208;-71
2024/02/11 01:58:20;;;;;;;22.90;15.52;;;;;;;;;;5065404;28;20181;-71
2024/02/11 02:00:47;;;;;;;22.90;16.13;;;;;;;;;;5050841;28;20197;-71
2024/02/11 02:03:13;;;;;;;19.95;13.70;;;;;;;;;;5068740;28;20567;-71
2024/02/11 02:05:38;;;;;;;23.77;15.20;;;;;;;;;;5062689;28;20187;-72
2024/02/11 02:08:04;;;;;;;21.77;14.32;;;;;;;;;;5060814;28;20173;-70
2024/02/11 02:10:30;;;;;;;22.25;15.00;;;;;;;;;;5041926;28;20397;-72
2024/02/11 02:12:55;;;;;;;23.35;15.50;;;;;;;;;;5064908;28;20173;-71
2024/02/11 02:15:22;;;;;;;20.00;14.25;;;;;;;;;;5069179;28;20188;-72
2024/02/11 02:17:47;;;;;;;22.27;14.15;;;;;;;;;;5042987;28;20240;-72
2024/02/11 02:20:14;;;;;;;21.08;13.70;;;;;;;;;;5065664;28;20247;-72
2024/02/11 02:22:41;;;;;;;20.50;14.88;;;;;;;;;;5069519;28;20172;-72
2024/02/11 02:25:06;;;;;;;20.88;13.88;;;;;;;;;;5050976;28;20205;-72
2024/02/11 02:27:32;;;;;;;20.83;14.32;;;;;;;;;;5068210;28;20169;-72
2024/02/11 02:29:57;;;;;;;24.80;15.77;;;;;;;;;;5062600;28;20169;-71
2024/02/11 02:32:22;;;;;;;23.40;15.90;;;;;;;;;;5064462;28;20644;-73
2024/02/11 02:34:47;;;;;;;21.33;14.23;;;;;;;;;;5056892;28;20536;-70
2024/02/11 02:37:12;;;;;;;21.60;14.80;;;;;;;;;;5062034;28;20192;-71
2024/02/11 02:39:38;;;;;;;23.35;15.15;;;;;;;;;;5035903;28;20228;-71
2024/02/11 02:42:03;;;;;;;22.67;15.38;;;;;;;;;;5081525;22;20221;-68
2024/02/11 02:44:30;;;;;;;23.85;15.25;;;;;;;;;;5066006;28;20208;-67
2024/02/11 02:46:55;;;;;;;28.88;15.82;;;;;;;;;;5061064;28;20177;-68
2024/02/11 02:49:21;;;;;;;25.45;16.08;;;;;;;;;;5054105;28;20195;-67
2024/02/11 02:51:46;;;;;;;25.40;16.08;;;;;;;;;;5075071;28;20558;-68
2024/02/11 02:54:12;;;;;;;23.50;15.32;;;;;;;;;;5075181;28;20551;-68
2024/02/11 02:56:38;;;;;;;25.35;16.27;;;;;;;;;;5059714;28;20662;-68
2024/02/11 02:59:08;;;;;;;23.05;15.88;;;;;;;;;;5073488;28;20259;-68
2024/02/11 03:01:34;;;;;;;25.52;15.50;;;;;;;;;;5084205;28;20575;-68
2024/02/11 03:04:01;;;;;;;24.02;16.35;;;;;;;;;;5075854;28;20188;-68
2024/02/11 03:06:26;;;;;;;23.67;15.93;;;;;;;;;;5055676;28;20172;-68
2024/02/11 03:08:51;;;;;;;25.85;16.10;;;;;;;;;;5076826;28;20180;-68
2024/02/11 03:11:16;;;;;;;23.65;15.50;;;;;;;;;;5075122;28;20216;-68
2024/02/11 03:13:43;;;;;;;22.38;15.50;;;;;;;;;;5072750;28;20184;-68
2024/02/11 03:16:08;;;;;;;23.55;15.07;;;;;;;;;;5071111;28;20177;-68
2024/02/11 03:18:33;;;;;;;22.98;15.27;;;;;;;;;;5076959;28;20239;-68
2024/02/11 03:20:59;;;;;;;25.30;16.65;;;;;;;;;;5080766;28;20201;-68
2024/02/11 03:23:24;;;;;;;23.85;15.27;;;;;;;;;;5076217;28;20169;-68
2024/02/11 03:25:50;;;;;;;24.80;16.70;;;;;;;;;;5056810;28;20226;-68
2024/02/11 03:28:16;;;;;;;20.55;14.32;;;;;;;;;;5056607;28;20628;-68
2024/02/11 03:30:41;;;;;;;24.10;14.98;;;;;;;;;;5059601;28;20212;-69
2024/02/11 03:33:06;;;;;;;23.00;15.23;;;;;;;;;;5078670;28;20176;-68
2024/02/11 03:35:32;;;;;;;22.83;15.32;;;;;;;;;;5077632;28;20169;-69
2024/02/11 03:37:57;;;;;;;21.50;14.77;;;;;;;;;;5077965;28;20205;-69
2024/02/11 03:40:23;;;;;;;24.10;14.52;;;;;;;;;;5083728;28;20173;-68
2024/02/11 03:42:50;;;;;;;20.45;14.65;;;;;;;;;;5060462;28;20562;-68
2024/02/11 03:45:18;;;;;;;19.30;13.75;;;;;;;;;;5077259;28;20694;-67
2024/02/11 03:47:44;;;;;;;20.83;14.02;;;;;;;;;;5076096;28;20249;-68
2024/02/11 03:50:15;;;;;;;20.83;14.65;;;;;;;;;;5067592;28;21179;-68
2024/02/11 03:52:40;;;;;;;21.02;14.48;;;;;;;;;;5085877;28;20166;-69
2024/02/11 03:55:07;;;;;;;20.67;14.43;;;;;;;;;;5081080;28;20180;-67
2024/02/11 03:57:32;;;;;;;22.10;14.75;;;;;;;;;;5085580;28;20184;-68
2024/02/11 03:59:57;;;;;;;18.08;13.30;;;;;;;;;;5080707;28;20177;-68
2024/02/11 04:02:23;;;;;;;21.02;14.73;;;;;;;;;;5074683;28;20280;-68
2024/02/11 04:04:49;;;;;;;19.63;13.45;;;;;;;;;;5057343;28;20211;-68
2024/02/11 04:07:15;;;;;;;23.27;14.50;;;;;;;;;;5074437;28;20583;-68
2024/02/11 04:09:40;;;;;;;22.00;14.48;;;;;;;;;;5082338;28;20207;-69
2024/02/11 04:12:07;;;;;;;22.75;15.05;;;;;;;;;;5084406;28;20200;-69
2024/02/11 04:14:33;;;;;;;23.38;14.82;;;;;;;;;;5078513;28;20181;-68
2024/02/11 04:16:58;;;;;;;19.83;13.75;;;;;;;;;;5076770;28;20261;-68
2024/02/11 04:19:25;;;;;;;21.85;15.48;;;;;;;;;;5083270;28;20165;-69
2024/02/11 04:21:50;;;;;;;20.70;13.35;;;;;;;;;;5073796;28;20200;-69
2024/02/11 04:24:16;;;;;;;19.20;14.38;;;;;;;;;;5076924;28;20246;-68
2024/02/11 04:26:41;;;;;;;20.40;14.85;;;;;;;;;;5078362;28;20694;-69
2024/02/11 04:29:10;;;;;;;17.92;13.05;;;;;;;;;;5077222;28;20173;-69
2024/02/11 04:31:36;;;;;;;19.63;13.85;;;;;;;;;;5058650;28;20330;-68
2024/02/11 04:34:01;;;;;;;20.52;14.32;;;;;;;;;;5077503;28;20276;-68
2024/02/11 04:36:26;;;;;;;22.48;14.80;;;;;;;;;;5063008;28;20189;-68
2024/02/11 04:38:57;;;;;;;21.40;14.65;;;;;;;;;;5078082;28;20169;-68
2024/02/11 04:41:23;;;;;;;21.95;14.95;;;;;;;;;;5078095;28;20211;-68
2024/02/11 04:43:48;;;;;;;19.98;14.13;;;;;;;;;;5075647;28;20204;-67
2024/02/11 04:46:14;;;;;;;21.15;14.55;;;;;;;;;;5083914;28;20255;-68
2024/02/11 04:48:39;;;;;;;19.83;13.98;;;;;;;;;;5084761;28;20176;-68
2024/02/11 04:51:07;;;;;;;20.98;14.52;;;;;;;;;;5081003;28;20192;-67
2024/02/11 04:53:33;;;;;;;21.48;13.43;;;;;;;;;;5076739;28;20176;-68
2024/02/11 04:55:59;;;;;;;23.83;14.52;;;;;;;;;;5074506;28;20202;-68
2024/02/11 04:58:26;;;;;;;21.10;14.65;;;;;;;;;;5080400;28;20176;-69
2024/02/11 05:00:51;;;;;;;23.55;14.95;;;;;;;;;;5073814;28;20204;-69
2024/02/11 05:03:17;;;;;;;21.85;14.18;;;;;;;;;;5077799;28;20256;-68
2024/02/11 05:05:43;;;;;;;21.40;15.13;;;;;;;;;;5075827;28;20181;-68
2024/02/11 05:08:09;;;;;;;23.92;15.02;;;;;;;;;;5085970;28;20550;-69
2024/02/11 05:10:37;;;;;;;24.95;15.65;;;;;;;;;;5073443;28;20210;-67
2024/02/11 05:13:04;;;;;;;22.63;15.15;;;;;;;;;;5061341;28;20177;-68
2024/02/11 05:15:33;;;;;;;20.95;14.75;;;;;;;;;;5076226;28;20189;-69
2024/02/11 05:18:00;;;;;;;22.42;15.77;;;;;;;;;;5082410;28;20199;-68
2024/02/11 05:20:26;;;;;;;23.13;16.48;;;;;;;;;;5079030;28;20602;-68
2024/02/11 05:22:51;;;;;;;23.13;15.38;;;;;;;;;;5076002;28;20458;-69
2024/02/11 05:25:19;;;;;;;25.85;16.98;;;;;;;;;;5077648;28;20207;-68
2024/02/11 05:28:04;;;;;;;26.65;16.13;;;;;;;;;;5067536;28;20221;-68
2024/02/11 05:30:34;;;;;;;23.00;15.05;;;;;;;;;;5071702;28;20196;-68
2024/02/11 05:33:00;;;;;;;24.65;16.33;;;;;;;;;;5075759;28;20276;-69
2024/02/11 05:35:28;;;;;;;25.13;16.77;;;;;;;;;;5079035;28;20256;-69
2024/02/11 05:37:57;;;;;;;28.75;17.10;;;;;;;;;;5080458;28;20180;-69
2024/02/11 05:40:26;;;;;;;25.73;17.85;;;;;;;;;;5079971;28;20177;-68
2024/02/11 05:42:52;;;;;;;26.25;16.98;;;;;;;;;;5059216;28;20202;-68
2024/02/11 05:45:17;;;;;;;25.08;17.27;;;;;;;;;;5082792;28;20196;-68
2024/02/11 05:47:43;;;;;;;26.30;16.35;;;;;;;;;;5067426;28;20176;-68
2024/02/11 05:50:08;;;;;;;26.52;18.25;;;;;;;;;;5074641;28;20177;-68
2024/02/11 05:52:34;;;;;;;30.05;18.38;;;;;;;;;;5074780;28;20204;-67
2024/02/11 05:54:59;;;;;;;29.73;19.80;;;;;;;;;;5082021;28;20222;-68
2024/02/11 05:57:25;;;;;;;22.85;16.05;;;;;;;;;;5076834;28;20207;-68
2024/02/11 05:59:50;;;;;;;16.40;10.90;;;;;;;;;;5060170;28;20271;-67
2024/02/11 06:02:16;;;;;;;10.23;6.17;;;;;;;;;;5073022;28;20220;-68
2024/02/11 06:04:41;;;;;;;8.70;5.30;;;;;;;;;;5073613;28;20576;-67
2024/02/11 06:07:08;;;;;;;12.33;5.77;;;;;;;;;;5075797;28;20227;-68
2024/02/11 06:09:34;;;;;;;9.53;5.23;;;;;;;;;;5070882;28;20546;-67
2024/02/11 06:11:59;;;;;;;11.43;6.83;;;;;;;;;;5081889;28;20242;-67
2024/02/11 06:14:24;;;;;;;9.23;5.60;;;;;;;;;;5072508;28;20189;-68
2024/02/11 06:16:50;;;;;;;9.67;6.30;;;;;;;;;;5085516;28;20655;-67
2024/02/11 06:19:15;;;;;;;10.27;6.10;;;;;;;;;;5084459;28;20177;-67
2024/02/11 06:21:40;;;;;;;10.00;4.60;;;;;;;;;;5074100;28;20212;-67
2024/02/11 06:24:06;;;;;;;8.67;4.57;;;;;;;;;;5082447;28;20230;-67
2024/02/11 06:26:31;;;;;;;8.70;3.90;;;;;;;;;;5072512;28;20193;-68
2024/02/11 06:28:58;;;;;;;11.97;4.13;;;;;;;;;;5076995;28;20217;-67
2024/02/11 06:31:23;;;;;;;7.97;4.20;;;;;;;;;;5074869;28;20386;-68
2024/02/11 06:33:49;;;;;;;7.33;4.23;;;;;;;;;;5076696;28;20187;-68
2024/02/11 06:36:16;;;;;;;14.83;5.47;;;;;;;;;;5063298;28;20187;-68
2024/02/11 06:38:43;;;;;;;14.40;4.67;;;;;;;;;;5067460;28;20233;-68
2024/02/11 06:41:09;;;;;;;10.47;4.80;;;;;;;;;;5079687;28;20220;-68
2024/02/11 06:43:34;;;;;;;7.77;4.17;;;;;;;;;;5078454;28;20239;-68
2024/02/11 06:45:59;;;;;;;10.33;3.70;;;;;;;;;;5080860;28;20475;-68
2024/02/11 06:48:25;;;;;;;10.50;4.60;;;;;;;;;;5087337;28;20203;-67
2024/02/11 06:50:51;;;;;;;12.23;4.30;;;;;;;;;;5072916;28;20195;-67
2024/02/11 06:53:16;;;;;;;12.43;5.17;;;;;;;;;;5080994;28;20176;-68
2024/02/11 06:55:42;;;;;;;9.50;4.87;;;;;;;;;;5082844;28;20172;-68
2024/02/11 06:58:07;;;;;;;13.73;5.17;;;;;;;;;;5081300;28;20183;-67
2024/02/11 07:00:33;;;;;;;15.10;6.43;;;;;;;;;;5062090;28;20905;-68
2024/02/11 07:03:02;;;;;;;12.17;6.23;;;;;;;;;;5088921;28;20175;-67
2024/02/11 07:05:28;;;;;;;20.33;7.03;;;;;;;;;;5079801;28;20204;-68
2024/02/11 07:07:54;;;;;;;17.13;6.63;;;;;;;;;;5089268;28;20226;-68
2024/02/11 07:10:19;;;;;;;13.13;6.43;;;;;;;;;;5063999;28;20169;-68
2024/02/11 07:12:46;;;;;;;20.93;6.67;;;;;;;;;;5078585;28;20173;-68
2024/02/11 07:15:11;;;;;;;15.30;6.40;;;;;;;;;;5059766;28;20203;-68
2024/02/11 07:17:38;;;;;;;10.60;5.87;;;;;;;;;;5080665;28;20183;-67
2024/02/11 07:20:04;;;;;;;11.07;5.70;;;;;;;;;;5083162;28;20177;-68
2024/02/11 07:22:30;;;;;;;12.37;5.70;;;;;;;;;;5086175;28;20581;-69
2024/02/11 07:24:56;;;;;;;12.87;5.63;;;;;;;;;;5086386;28;20679;-69
2024/02/11 07:27:23;;;;;;;17.87;6.43;;;;;;;;;;5077481;28;20250;-68
2024/02/11 07:29:49;;;;;;;14.50;6.67;;;;;;;;;;5064500;28;20200;-68
2024/02/11 07:32:15;;;;;;;13.27;6.00;;;;;;;;;;5078397;28;20270;-69
2024/02/11 07:34:40;;;;;;;18.23;7.33;;;;;;;;;;5085311;28;20651;-69
2024/02/11 07:37:06;;;;;;;16.40;6.93;;;;;;;;;;5075417;28;20180;-68
2024/02/11 07:39:31;;;;;;;18.77;8.07;;;;;;;;;;5081251;28;20547;-69
2024/02/11 07:41:57;;;;;;;18.67;8.03;;;;;;;;;;5075454;28;20282;-68
2024/02/11 07:44:23;;;;;;;21.07;9.17;;;;;;;;;;5089257;28;20246;-69
2024/02/11 07:46:48;;;;;;;21.30;8.87;;;;;;;;;;5080507;28;20180;-68
2024/02/11 07:49:14;;;;;;;18.67;8.57;;;;;;;;;;5079847;28;20180;-69
2024/02/11 07:51:44;;;;;;;15.97;7.93;;;;;;;;;;5077948;28;20192;-69
2024/02/11 07:54:09;;;;;;;21.17;7.87;;;;;;;;;;5063282;28;20184;-69
2024/02/11 07:56:36;;;;;;;23.43;8.70;;;;;;;;;;5075186;28;20173;-69
2024/02/11 07:59:01;;;;;;;19.90;9.03;;;;;;;;;;5063175;28;20211;-68
2024/02/11 08:01:26;;;;;;;22.53;9.73;;;;;;;;;;5077296;28;20743;-68
2024/02/11 08:03:53;;;;;;;22.53;10.17;;;;;;;;;;5080286;28;20679;-68
2024/02/11 08:06:18;;;;;;;19.37;9.00;;;;;;;;;;5089013;28;20177;-69
2024/02/11 08:08:43;;;;;;;20.97;9.00;;;;;;;;;;5081319;28;20680;-68
2024/02/11 08:11:09;;;;;;;18.77;9.87;;;;;;;;;;5078008;28;20206;-68
2024/02/11 08:13:35;;;;;;;21.20;9.03;;;;;;;;;;5075789;28;20174;-68
2024/02/11 08:16:01;;;;;;;21.57;8.27;;;;;;;;;;5079475;28;20180;-69
2024/02/11 08:18:26;;;;;;;20.87;9.93;;;;;;;;;;5077745;28;20516;-68
2024/02/11 08:20:51;;;;;;;22.53;10.10;;;;;;;;;;5082785;28;20679;-68
2024/02/11 08:23:17;;;;;;;22.57;9.60;;;;;;;;;;5081567;28;20667;-69
2024/02/11 08:25:43;;;;;;;23.27;10.33;;;;;;;;;;5076313;28;20578;-68
2024/02/11 08:28:09;;;;;;;21.10;10.00;;;;;;;;;;5076908;28;20176;-68
2024/02/11 08:30:36;;;;;;;20.07;10.83;;;;;;;;;;5062943;28;20193;-68
2024/02/11 08:33:02;;;;;;;22.73;10.33;;;;;;;;;;5081453;28;20231;-68
2024/02/11 08:35:27;;;;;;;24.47;9.63;;;;;;;;;;5080912;28;20648;-69
2024/02/11 08:37:53;;;;;;;22.47;8.47;;;;;;;;;;5081582;28;20181;-68
2024/02/11 08:40:18;;;;;;;20.03;9.07;;;;;;;;;;5081685;28;20183;-69
2024/02/11 08:42:43;;;;;;;24.50;10.97;;;;;;;;;;5054619;22;20241;-72
2024/02/11 08:45:10;;;;;;;21.73;9.13;;;;;;;;;;5009665;28;20225;-72
2024/02/11 08:47:35;;;;;;;23.40;8.57;;;;;;;;;;5026584;28;20180;-72
2024/02/11 08:50:00;;;;;;;19.33;8.93;;;;;;;;;;5033667;28;20277;-72
2024/02/11 08:52:26;;;;;;;22.07;9.00;;;;;;;;;;5009433;28;20199;-72
2024/02/11 08:54:51;;;;;;;18.17;8.77;;;;;;;;;;5025498;28;20190;-73
2024/02/11 08:57:17;;;;;;;20.07;8.83;;;;;;;;;;5025295;28;20182;-73
2024/02/11 08:59:43;;;;;;;25.20;8.93;;;;;;;;;;5026688;28;20186;-72
2024/02/11 09:02:10;;;;;;;18.60;8.80;;;;;;;;;;5022501;28;20632;-73
2024/02/11 09:04:35;;;;;;;16.80;8.83;;;;;;;;;;5015375;28;20264;-71
2024/02/11 09:07:00;;;;;;;22.43;10.00;;;;;;;;;;5026670;28;20182;-72
2024/02/11 09:09:26;;;;;;;20.57;9.30;;;;;;;;;;5018311;28;20193;-73
2024/02/11 09:11:55;;;;;;;19.67;9.90;;;;;;;;;;5001832;28;20205;-72
2024/02/11 09:14:21;;;;;;;24.23;10.60;;;;;;;;;;5025464;28;20737;-73
2024/02/11 09:16:46;;;;;;;19.87;10.30;;;;;;;;;;5025124;28;20261;-73
2024/02/11 09:19:11;;;;;;;20.67;10.43;;;;;;;;;;4993989;28;21340;-72
2024/02/11 09:21:37;;;;;;;20.17;10.87;;;;;;;;;;5012226;28;20189;-73
2024/02/11 09:24:02;;;;;;;19.80;10.67;;;;;;;;;;5031397;28;20197;-73
2024/02/11 09:26:27;;;;;;;24.20;11.47;;;;;;;;;;5031738;28;20167;-73
2024/02/11 09:28:53;;;;;;;28.03;11.27;;;;;;;;;;5021873;28;20198;-72
2024/02/11 09:31:18;;;;;;;25.23;12.83;;;;;;;;;;5007298;28;20342;-73
2024/02/11 09:33:43;;;;;;;25.97;12.33;;;;;;;;;;5031923;28;20631;-72
2024/02/11 09:36:10;;;;;;;22.70;11.83;;;;;;;;;;5002413;28;20183;-73
2024/02/11 09:38:35;;;;;;;25.73;13.47;;;;;;;;;;4998788;28;20194;-72
2024/02/11 09:41:04;;;;;;;20.30;11.77;;;;;;;;;;5025198;28;20587;-73
2024/02/11 09:43:29;;;;;;;24.07;12.13;;;;;;;;;;5021898;28;20175;-73
2024/02/11 09:45:59;;;;;;;24.87;12.70;;;;;;;;;;5025353;28;20179;-72
2024/02/11 09:48:25;;;;;;;24.85;12.30;;;;;;;;;;5021888;28;20174;-73
2024/02/11 09:50:52;;;;;;;32.27;13.73;;;;;;;;;;5028664;28;20276;-73
2024/02/11 09:53:17;;;;;;;22.47;12.37;;;;;;;;;;5018395;28;20265;-73
2024/02/11 09:55:43;;;;;;;24.95;12.30;;;;;;;;;;5023282;28;20532;-73
2024/02/11 09:58:08;;;;;;;25.98;13.00;;;;;;;;;;5026937;28;20261;-73
2024/02/11 10:00:33;;;;;;;29.77;12.43;;;;;;;;;;5024130;28;20268;-73
2024/02/11 10:03:01;;;;;;;24.80;12.75;;;;;;;;;;5027657;28;20181;-74
2024/02/11 10:05:28;;;;;;;25.50;13.10;;;;;;;;;;5012183;28;20202;-72
2024/02/11 10:07:54;;;;;;;28.40;12.75;;;;;;;;;;5029875;28;20174;-74
2024/02/11 10:10:20;;;;;;;26.63;12.30;;;;;;;;;;5024043;28;20186;-74
2024/02/11 10:12:47;;;;;;;26.77;11.75;;;;;;;;;;5027213;28;20205;-72
2024/02/11 10:15:16;;;;;;;29.45;14.27;;;;;;;;;;5024558;28;20205;-73
2024/02/11 10:17:41;;;;;;;21.45;11.63;;;;;;;;;;5004123;28;20203;-73
2024/02/11 10:20:07;;;;;;;21.10;12.27;;;;;;;;;;5027745;28;20264;-73
2024/02/11 10:22:34;;;;;;;23.15;12.38;;;;;;;;;;5012250;28;20234;-72
2024/02/11 10:25:00;;;;;;;23.77;12.85;;;;;;;;;;5008723;28;20202;-71
2024/02/11 10:27:25;;;;;;;27.42;13.73;;;;;;;;;;5027634;28;20217;-71
2024/02/11 10:29:50;;;;;;;25.15;12.40;;;;;;;;;;5020941;28;20195;-70
2024/02/11 10:32:16;;;;;;;22.45;12.98;;;;;;;;;;5014010;28;20584;-72
2024/02/11 10:34:42;;;;;;;29.20;14.20;;;;;;;;;;5028352;28;20201;-72
2024/02/11 10:37:08;;;;;;;26.27;12.40;;;;;;;;;;5027030;28;20182;-75
2024/02/11 10:39:36;;;;;;;23.40;12.70;;;;;;;;;;5022926;28;20178;-71
2024/02/11 10:42:01;;;;;;;25.15;13.38;;;;;;;;;;5007495;28;20225;-70
2024/02/11 10:44:27;;;;;;;26.90;13.88;;;;;;;;;;5024975;28;20198;-71
2024/02/11 10:46:55;;;;;;;28.50;13.77;;;;;;;;;;5026493;28;20209;-72
2024/02/11 10:49:20;;;;;;;28.02;14.88;;;;;;;;;;5029563;28;20210;-72
2024/02/11 10:51:48;;;;;;;31.60;14.50;;;;;;;;;;5016672;28;20236;-71
2024/02/11 10:54:14;;;;;;;33.58;13.73;;;;;;;;;;5010141;28;20270;-71
2024/02/11 10:56:40;;;;;;;22.83;12.85;;;;;;;;;;5028231;28;20208;-72
2024/02/11 10:59:09;;;;;;;28.00;14.50;;;;;;;;;;5027666;28;20175;-72
2024/02/11 11:01:36;;;;;;;27.88;14.55;;;;;;;;;;5023622;28;20714;-71
2024/02/11 11:04:02;;;;;;;23.50;13.45;;;;;;;;;;5029654;28;20489;-72
2024/02/11 11:06:29;;;;;;;28.45;13.68;;;;;;;;;;5026415;28;20197;-72
2024/02/11 11:08:54;;;;;;;32.45;14.23;;;;;;;;;;5022801;28;20416;-73
2024/02/11 11:11:26;;;;;;;35.58;15.32;;;;;;;;;;5024780;28;20198;-72
2024/02/11 11:13:56;;;;;;;26.42;14.07;;;;;;;;;;5022733;28;20232;-72
2024/02/11 11:16:25;;;;;;;30.02;14.85;;;;;;;;;;5022057;28;20229;-72
2024/02/11 11:18:51;;;;;;;27.98;13.70;;;;;;;;;;5023910;28;20194;-72
2024/02/11 11:21:16;;;;;;;30.20;14.32;;;;;;;;;;5027257;28;20256;-71
2024/02/11 11:23:45;;;;;;;26.90;14.45;;;;;;;;;;5026081;28;20186;-72
2024/02/11 11:26:10;;;;;;;35.63;17.05;;;;;;;;;;5026476;28;20175;-73
2024/02/11 11:28:38;;;;;;;26.77;15.45;;;;;;;;;;5025722;28;20593;-72
2024/02/11 11:31:03;;;;;;;30.10;14.63;;;;;;;;;;5028121;28;20674;-74
2024/02/11 11:33:34;;;;;;;27.80;14.00;;;;;;;;;;5026987;28;20189;-71
2024/02/11 11:35:59;;;;;;;31.90;14.75;;;;;;;;;;5023373;28;20193;-72
2024/02/11 11:38:27;;;;;;;29.80;14.50;;;;;;;;;;5031211;28;20178;-72
2024/02/11 11:40:54;;;;;;;30.55;16.17;;;;;;;;;;5033953;28;20655;-71
2024/02/11 11:43:28;;;;;;;29.83;16.60;;;;;;;;;;5011936;28;20182;-71
2024/02/11 11:45:55;;;;;;;23.85;13.80;;;;;;;;;;5027787;28;20727;-71
2024/02/11 11:48:21;;;;;;;41.25;16.58;;;;;;;;;;5030285;28;20571;-69
2024/02/11 11:50:54;;;;;;;36.53;14.85;;;;;;;;;;5032307;28;20541;-69
2024/02/11 11:53:20;;;;;;;28.70;16.23;;;;;;;;;;5030681;28;20213;-70
2024/02/11 11:55:52;;;;;;;33.97;14.48;;;;;;;;;;5032670;28;20198;-73
2024/02/11 11:58:18;;;;;;;35.47;16.60;;;;;;;;;;5032221;28;20236;-73
2024/02/11 12:00:52;;;;;;;36.28;15.05;;;;;;;;;;5002531;28;20555;-73
2024/02/11 12:03:17;;;;;;;27.92;14.55;;;;;;;;;;5015483;28;20185;-73
2024/02/11 12:05:43;;;;;;;30.17;14.40;;;;;;;;;;5003799;28;20206;-73
2024/02/11 12:08:08;;;;;;;28.35;14.80;;;;;;;;;;5033327;28;20170;-73
2024/02/11 12:10:34;;;;;;;27.35;14.57;;;;;;;;;;5023080;28;20297;-73
2024/02/11 12:12:59;;;;;;;30.52;14.10;;;;;;;;;;5005945;28;20190;-73
2024/02/11 12:15:25;;;;;;;25.30;13.48;;;;;;;;;;5026536;28;20203;-74
2024/02/11 12:17:50;;;;;;;30.75;13.07;;;;;;;;;;5026376;28;20185;-73
2024/02/11 12:20:15;;;;;;;22.73;12.20;;;;;;;;;;5028572;28;20174;-74
2024/02/11 12:22:42;;;;;;;28.00;11.57;;;;;;;;;;5013489;28;20287;-73
2024/02/11 12:25:08;;;;;;;26.02;12.48;;;;;;;;;;5031307;28;20198;-74
2024/02/11 12:27:33;;;;;;;27.70;13.60;;;;;;;;;;5028169;28;20174;-74
2024/02/11 12:29:58;;;;;;;25.77;14.30;;;;;;;;;;5002335;28;20194;-75
2024/02/11 12:32:24;;;;;;;28.27;14.60;;;;;;;;;;5024933;28;20205;-75
2024/02/11 12:34:50;;;;;;;28.90;13.20;;;;;;;;;;5029738;28;20189;-75
2024/02/11 12:37:16;;;;;;;29.60;14.63;;;;;;;;;;5029051;28;20564;-75
2024/02/11 12:39:42;;;;;;;33.60;15.68;;;;;;;;;;5027088;28;20283;-74
2024/02/11 12:42:09;;;;;;;28.60;13.57;;;;;;;;;;5004224;28;20267;-75
2024/02/11 12:44:35;;;;;;;26.50;15.00;;;;;;;;;;5031347;28;20205;-75
2024/02/11 12:47:02;;;;;;;33.50;14.18;;;;;;;;;;5013801;28;20261;-75
2024/02/11 12:49:27;;;;;;;27.77;15.82;;;;;;;;;;5024632;28;20174;-75
2024/02/11 12:51:52;;;;;;;28.08;15.07;;;;;;;;;;5025374;28;20206;-75
2024/02/11 12:54:17;;;;;;;33.60;16.33;;;;;;;;;;5027801;28;20182;-75
2024/02/11 12:56:43;;;;;;;30.73;14.07;;;;;;;;;;5005354;28;20190;-75
2024/02/11 12:59:10;;;;;;;29.30;13.90;;;;;;;;;;5025655;28;20236;-75
2024/02/11 13:01:35;;;;;;;28.42;14.90;;;;;;;;;;5005301;28;20226;-75
2024/02/11 13:04:00;;;;;;;32.22;13.90;;;;;;;;;;5025327;28;20657;-76
2024/02/11 13:06:26;;;;;;;28.45;14.48;;;;;;;;;;5024348;28;20189;-76
2024/02/11 13:08:51;;;;;;;26.42;14.30;;;;;;;;;;5026957;28;20170;-76
2024/02/11 13:11:17;;;;;;;26.73;12.27;;;;;;;;;;5005370;28;20202;-75
2024/02/11 13:13:42;;;;;;;29.45;13.85;;;;;;;;;;5026988;28;20278;-75
2024/02/11 13:16:07;;;;;;;22.27;11.52;;;;;;;;;;5024903;28;20280;-74
2024/02/11 13:18:33;;;;;;;21.13;11.68;;;;;;;;;;5011733;28;20266;-74
2024/02/11 13:20:58;;;;;;;23.23;11.80;;;;;;;;;;5027010;28;20194;-75
2024/02/11 13:23:24;;;;;;;22.23;11.55;;;;;;;;;;5021358;28;20170;-74
2024/02/11 13:25:50;;;;;;;22.42;11.18;;;;;;;;;;5011997;28;20229;-75
2024/02/11 13:28:17;;;;;;;19.33;10.75;;;;;;;;;;5027224;28;20170;-75
2024/02/11 13:30:43;;;;;;;20.85;9.25;;;;;;;;;;5018737;28;20186;-74
2024/02/11 13:33:09;;;;;;;16.10;9.70;;;;;;;;;;5000645;28;20270;-74
2024/02/11 13:35:34;;;;;;;20.85;9.82;;;;;;;;;;5027667;28;20614;-75
2024/02/11 13:38:00;;;;;;;17.60;9.68;;;;;;;;;;5025030;28;20196;-75
2024/02/11 13:40:25;;;;;;;27.20;9.18;;;;;;;;;;5023984;28;20426;-75
2024/02/11 13:42:50;;;;;;;20.83;9.05;;;;;;;;;;5013092;28;20209;-74
2024/02/11 13:45:16;;;;;;;19.08;8.45;;;;;;;;;;5021751;28;20237;-74
2024/02/11 13:47:41;;;;;;;18.17;9.02;;;;;;;;;;5006133;28;20182;-74
2024/02/11 13:50:07;;;;;;;16.52;9.57;;;;;;;;;;5010142;28;20181;-75
2024/02/11 13:52:33;;;;;;;21.98;10.15;;;;;;;;;;5029748;28;20225;-74
2024/02/11 13:54:59;;;;;;;17.30;9.20;;;;;;;;;;5018324;28;20229;-74
2024/02/11 13:57:24;;;;;;;12.30;6.60;;;;;;;;;;5021627;28;20178;-75
2024/02/11 13:59:50;;;;;;;8.07;3.60;;;;;;;;;;4998462;28;20183;-75
2024/02/11 14:02:16;;;;;;;7.10;3.55;;;;;;;;;;5026097;28;20260;-75
2024/02/11 14:04:41;;;;;;;4.72;2.67;;;;;;;;;;5024377;28;20681;-74
2024/02/11 14:07:06;;;;;;;4.97;2.60;;;;;;;;;;5009896;28;20170;-75
2024/02/11 14:09:32;;;;;;;4.25;2.30;;;;;;;;;;5024269;28;20175;-75
2024/02/11 14:11:57;;;;;;;7.38;2.08;;;;;;;;;;5020116;28;20199;-75
2024/02/11 14:14:23;;;;;;;2.88;1.80;;;;;;;;;;5022168;28;20203;-74